createdAt,value
2022-08-17T00:03:38.632Z,99184.72
2022-08-17T00:13:42.174Z,99177.66
2022-08-17T00:23:49.437Z,99174.69
2022-08-17T00:33:51.526Z,99177.13
2022-08-17T00:43:58.783Z,99178.72
2022-08-17T00:54:23.345Z,99190.28
2022-08-17T01:04:26.467Z,99183.16
2022-08-17T01:14:28.222Z,99187.41
2022-08-17T01:24:30.243Z,99178.84
2022-08-17T01:34:42.892Z,99166.53
2022-08-17T01:44:45.651Z,99146.13
2022-08-17T01:54:49.305Z,99150.09
2022-08-17T02:04:51.068Z,99146.13
2022-08-17T02:14:52.677Z,99146.66
2022-08-17T02:25:00.749Z,99148.13
2022-08-17T02:35:04.251Z,99142.38
2022-08-17T02:45:08.110Z,99136.91
2022-08-17T02:55:11.638Z,99142.50
2022-08-17T03:05:14.424Z,99136.00
2022-08-17T03:15:23.296Z,99144.81
2022-08-17T03:25:27.354Z,99146.28
2022-08-17T03:35:32.270Z,99147.28
2022-08-17T03:45:52.250Z,99150.75
2022-08-17T03:56:17.084Z,99149.28
2022-08-17T04:06:18.922Z,99143.91
2022-08-17T04:16:21.126Z,99130.41
2022-08-17T04:26:53.631Z,99138.53
2022-08-17T04:36:50.145Z,99120.09
2022-08-17T04:46:52.117Z,99104.56
2022-08-17T04:56:53.684Z,99107.13
2022-08-17T05:06:56.273Z,99104.25
2022-08-17T05:16:57.892Z,99114.81
2022-08-17T05:27:06.212Z,99127.34
2022-08-17T05:37:08.417Z,99133.75
2022-08-17T05:47:10.337Z,99135.75
2022-08-17T05:57:17.990Z,99154.13
2022-08-17T06:07:25.560Z,99158.38
2022-08-17T06:17:27.680Z,99152.59
2022-08-17T06:27:36.212Z,99150.97
2022-08-17T06:37:39.186Z,99167.91
2022-08-17T06:47:47.707Z,99172.63
2022-08-17T06:57:51.477Z,99174.94
2022-08-17T07:08:02.929Z,99170.03
2022-08-17T07:18:04.556Z,99158.75
2022-08-17T07:28:07.921Z,99159.00
2022-08-17T07:38:25.370Z,99160.22
2022-08-17T07:48:28.264Z,99162.47
2022-08-17T07:58:29.855Z,99155.97
2022-08-17T08:08:42.434Z,99147.06
2022-08-17T08:18:54.582Z,99138.84
2022-08-17T08:29:18.287Z,99141.44
2022-08-17T08:39:42.725Z,99141.41
2022-08-17T08:50:03.992Z,99131.41
2022-08-17T09:00:17.646Z,99125.94
2022-08-17T09:10:27.470Z,99129.13
2022-08-17T09:20:35.948Z,99133.91
2022-08-17T09:30:43.221Z,99127.97
2022-08-17T09:40:45.326Z,99127.22
2022-08-17T09:51:05.496Z,99122.34
2022-08-17T10:01:17.209Z,99104.53
2022-08-17T10:11:51.284Z,99111.03
2022-08-17T10:22:32.720Z,99113.66
2022-08-17T10:32:40.857Z,99114.28
2022-08-17T10:42:50.222Z,99120.47
2022-08-17T10:52:52.000Z,99113.94
2022-08-17T11:02:55.008Z,99091.53
2022-08-17T11:13:15.438Z,99097.94
2022-08-17T11:23:17.130Z,99092.78
2022-08-17T11:33:38.171Z,99075.56
2022-08-17T11:43:55.645Z,99070.41
2022-08-17T11:54:21.577Z,99057.09
2022-08-17T12:04:30.911Z,99064.38
2022-08-17T12:15:07.819Z,99071.56
2022-08-17T12:24:59.787Z,99067.09
2022-08-17T12:35:04.089Z,99068.59
2022-08-17T12:45:07.747Z,99080.59
2022-08-17T12:55:12.525Z,99076.53
2022-08-17T13:05:20.993Z,99069.00
2022-08-17T13:15:25.568Z,99083.34
2022-08-17T13:25:27.975Z,99082.19
2022-08-17T13:35:39.193Z,99083.94
2022-08-17T13:45:50.681Z,99098.97
2022-08-17T13:56:01.810Z,99085.53
2022-08-17T14:06:04.911Z,99080.09
2022-08-17T14:16:06.761Z,99087.22
2022-08-17T14:26:08.876Z,99091.88
2022-08-17T14:36:10.487Z,99094.66
2022-08-17T14:46:13.145Z,99101.34
2022-08-17T14:56:15.930Z,99100.19
2022-08-17T15:06:17.925Z,99097.03
2022-08-17T15:16:20.255Z,99092.16
2022-08-17T15:26:26.080Z,99090.38
2022-08-17T15:36:28.271Z,99092.31
2022-08-17T15:46:29.961Z,99099.44
2022-08-17T15:56:32.191Z,99101.56
2022-08-17T16:06:34.605Z,99109.41
2022-08-17T16:16:36.226Z,99106.72
2022-08-17T16:26:39.914Z,99119.50
2022-08-17T16:36:41.829Z,99122.09
2022-08-17T16:46:57.915Z,99130.03
2022-08-17T16:57:00.072Z,99137.13
2022-08-17T17:07:12.165Z,99138.44
2022-08-17T17:17:24.491Z,99138.16
2022-08-17T17:27:29.660Z,99139.81
2022-08-17T17:37:33.279Z,99153.06
2022-08-17T17:47:35.252Z,99158.69
2022-08-17T17:57:49.031Z,99170.25
2022-08-17T18:08:00.473Z,99172.59
2022-08-17T18:18:11.499Z,99164.13
2022-08-17T18:28:25.412Z,99162.44
2022-08-17T18:38:30.256Z,99162.31
2022-08-17T18:48:36.223Z,99160.16
2022-08-17T18:58:38.404Z,99156.81
2022-08-17T19:08:40.468Z,99156.22
2022-08-17T19:18:48.698Z,99158.44
2022-08-17T19:28:58.298Z,99161.81
2022-08-17T19:39:16.490Z,99158.09
2022-08-17T19:49:41.220Z,99159.13
2022-08-17T19:59:54.134Z,99162.91
2022-08-17T20:10:02.717Z,99169.84
2022-08-17T20:20:20.997Z,99178.66
2022-08-17T20:30:37.380Z,99161.72
2022-08-17T20:41:01.974Z,99158.75
2022-08-17T20:51:13.003Z,99146.22
2022-08-17T21:01:20.278Z,99146.47
2022-08-17T21:11:57.092Z,99150.66
2022-08-17T21:22:04.851Z,99148.56
2022-08-17T21:32:06.460Z,99155.06
2022-08-17T21:42:12.384Z,99155.56
2022-08-17T21:52:18.505Z,99156.31
2022-08-17T22:02:22.163Z,99159.88
2022-08-17T22:12:26.997Z,99160.19
2022-08-17T22:22:28.748Z,99152.84
2022-08-17T22:32:31.435Z,99150.31
2022-08-17T22:42:35.012Z,99149.06
2022-08-17T22:53:01.644Z,99168.19
2022-08-17T23:03:23.519Z,99162.03
2022-08-17T23:13:25.197Z,99173.09
2022-08-17T23:23:26.932Z,99168.00
2022-08-17T23:33:33.753Z,99168.63
2022-08-17T23:43:36.468Z,99174.22
2022-08-17T23:53:41.966Z,99180.06
